createdAt,value
2017-11-19T00:00:26.785Z,99.02
2017-11-19T00:02:54.424Z,98.96
2017-11-19T00:05:22.099Z,98.91
2017-11-19T00:07:49.752Z,98.85
2017-11-19T00:10:17.449Z,98.97
2017-11-19T00:12:45.132Z,99.06
2017-11-19T00:15:12.849Z,99.26
2017-11-19T00:17:40.512Z,99.37
2017-11-19T00:20:08.163Z,99.58
2017-11-19T00:22:35.851Z,99.59
2017-11-19T00:25:03.543Z,99.46
2017-11-19T00:27:31.249Z,99.31
2017-11-19T00:29:58.911Z,99.14
2017-11-19T00:32:26.637Z,99.06
2017-11-19T00:34:54.299Z,98.91
2017-11-19T00:37:21.990Z,98.86
2017-11-19T00:39:49.637Z,98.82
2017-11-19T00:42:17.312Z,98.86
2017-11-19T00:44:44.966Z,98.99
2017-11-19T00:47:12.655Z,98.94
2017-11-19T00:49:40.308Z,98.83
2017-11-19T00:52:08.024Z,98.72
2017-11-19T00:54:35.688Z,98.59
2017-11-19T00:57:03.413Z,98.56
2017-11-19T00:59:31.056Z,98.67
2017-11-19T01:01:58.703Z,98.79
2017-11-19T01:04:26.380Z,98.85
2017-11-19T01:06:54.060Z,99.00
2017-11-19T01:09:21.762Z,99.09
2017-11-19T01:11:49.419Z,99.19
2017-11-19T01:14:17.133Z,99.39
2017-11-19T01:16:44.804Z,99.64
2017-11-19T01:19:12.497Z,99.69
2017-11-19T01:21:40.156Z,99.82
2017-11-19T01:24:07.823Z,99.85
2017-11-19T01:26:35.490Z,99.79
2017-11-19T01:29:03.196Z,99.81
2017-11-19T01:31:30.841Z,99.80
2017-11-19T01:33:58.591Z,99.85
2017-11-19T01:36:26.316Z,99.89
2017-11-19T01:38:54.025Z,99.90
2017-11-19T01:41:22.694Z,99.88
2017-11-19T01:43:50.352Z,100.00
2017-11-19T01:46:18.037Z,99.95
2017-11-19T01:48:45.700Z,99.97
2017-11-19T01:51:13.421Z,100.00
2017-11-19T01:53:41.086Z,99.99
2017-11-19T01:56:08.789Z,99.96
2017-11-19T01:58:36.423Z,99.98
2017-11-19T02:01:04.118Z,100.00
2017-11-19T02:03:31.780Z,100.00
2017-11-19T02:05:59.455Z,100.00
2017-11-19T02:08:27.101Z,100.00
2017-11-19T02:10:54.783Z,100.00
2017-11-19T02:13:22.432Z,100.00
2017-11-19T02:15:50.107Z,99.64
2017-11-19T02:18:17.749Z,99.59
2017-11-19T02:20:45.432Z,99.56
2017-11-19T02:23:13.086Z,99.62
2017-11-19T02:25:40.769Z,99.62
2017-11-19T02:28:08.416Z,99.67
2017-11-19T02:30:36.094Z,99.72
2017-11-19T02:33:03.758Z,99.83
2017-11-19T02:35:31.441Z,99.90
2017-11-19T02:37:59.101Z,99.88
2017-11-19T02:40:26.797Z,99.85
2017-11-19T02:42:54.457Z,99.78
2017-11-19T02:45:22.152Z,99.80
2017-11-19T02:47:49.797Z,99.76
2017-11-19T02:50:17.505Z,99.73
2017-11-19T02:52:45.148Z,99.70
2017-11-19T02:55:12.820Z,99.69
2017-11-19T02:57:40.457Z,99.67
2017-11-19T03:00:08.112Z,99.65
2017-11-19T03:02:35.795Z,99.68
2017-11-19T03:05:03.433Z,99.70
2017-11-19T03:07:31.112Z,99.69
2017-11-19T03:09:58.757Z,99.70
2017-11-19T03:12:26.448Z,99.73
2017-11-19T03:14:54.086Z,99.73
2017-11-19T03:17:21.777Z,99.71
2017-11-19T03:19:49.427Z,99.73
2017-11-19T03:22:17.121Z,99.79
2017-11-19T03:24:44.760Z,99.85
2017-11-19T03:27:12.437Z,99.86
2017-11-19T03:29:40.108Z,99.76
2017-11-19T03:32:07.778Z,99.59
2017-11-19T03:34:35.415Z,99.52
2017-11-19T03:37:03.089Z,99.49
2017-11-19T03:39:30.745Z,99.47
2017-11-19T03:41:58.438Z,99.45
2017-11-19T03:44:26.090Z,99.50
2017-11-19T03:46:53.772Z,99.49
2017-11-19T03:49:21.425Z,99.56
2017-11-19T03:51:49.165Z,99.48
2017-11-19T03:54:16.812Z,99.35
2017-11-19T03:56:44.484Z,99.24
2017-11-19T03:59:12.129Z,99.22
2017-11-19T04:01:39.821Z,99.29
2017-11-19T04:04:07.460Z,99.34
2017-11-19T04:06:35.161Z,99.30
2017-11-19T04:09:02.871Z,99.23
2017-11-19T04:11:30.557Z,99.23
2017-11-19T04:13:58.238Z,99.37
2017-11-19T04:16:25.887Z,99.46
2017-11-19T04:18:53.578Z,99.54
2017-11-19T04:21:21.237Z,99.75
2017-11-19T04:23:48.921Z,99.91
2017-11-19T04:26:16.585Z,100.00
2017-11-19T04:28:44.281Z,99.98
2017-11-19T04:31:11.935Z,99.75
2017-11-19T04:33:39.614Z,99.56
2017-11-19T04:36:07.264Z,99.56
2017-11-19T04:38:34.947Z,99.50
2017-11-19T04:41:02.603Z,99.39
2017-11-19T04:43:30.293Z,99.35
2017-11-19T04:45:57.956Z,99.34
2017-11-19T04:48:25.644Z,99.29
2017-11-19T04:50:53.332Z,99.16
2017-11-19T04:53:20.977Z,99.09
2017-11-19T04:55:48.649Z,99.04
2017-11-19T04:58:16.301Z,99.03
2017-11-19T05:00:43.986Z,99.08
2017-11-19T05:03:11.624Z,99.17
2017-11-19T05:05:39.342Z,99.25
2017-11-19T05:08:06.984Z,99.24
2017-11-19T05:10:34.716Z,99.25
2017-11-19T05:13:02.357Z,99.23
2017-11-19T05:15:30.052Z,99.19
2017-11-19T05:17:57.701Z,99.18
2017-11-19T05:20:25.388Z,99.17
2017-11-19T05:22:52.973Z,99.21
2017-11-19T05:25:20.648Z,99.28
2017-11-19T05:27:48.284Z,99.33
2017-11-19T05:30:15.959Z,99.37
2017-11-19T05:32:43.607Z,99.39
2017-11-19T05:35:11.306Z,99.33
2017-11-19T05:37:38.948Z,99.38
2017-11-19T05:40:06.680Z,99.42
2017-11-19T05:42:34.321Z,99.35
2017-11-19T05:45:02.002Z,99.33
2017-11-19T05:47:29.653Z,99.45
2017-11-19T05:49:57.311Z,99.28
2017-11-19T05:52:25.022Z,99.01
2017-11-19T05:54:52.671Z,98.97
2017-11-19T05:57:20.365Z,98.96
2017-11-19T05:59:48.026Z,99.09
2017-11-19T06:02:15.733Z,99.11
2017-11-19T06:04:43.377Z,99.01
2017-11-19T06:07:11.048Z,99.04
2017-11-19T06:09:38.690Z,98.97
2017-11-19T06:12:06.363Z,98.88
2017-11-19T06:14:34.008Z,98.63
2017-11-19T06:17:01.698Z,98.58
2017-11-19T06:19:29.341Z,98.69
2017-11-19T06:21:57.034Z,98.75
2017-11-19T06:24:24.675Z,98.85
2017-11-19T06:26:52.356Z,98.96
2017-11-19T06:29:19.988Z,99.08
2017-11-19T06:31:47.676Z,99.13
2017-11-19T06:34:15.384Z,99.13
2017-11-19T06:36:43.068Z,99.13
2017-11-19T06:39:10.732Z,99.26
2017-11-19T06:41:38.350Z,99.46
2017-11-19T06:44:05.986Z,99.66
2017-11-19T06:46:33.664Z,99.72
2017-11-19T06:49:01.323Z,99.80
2017-11-19T06:51:29.039Z,99.84
2017-11-19T06:53:56.686Z,99.92
2017-11-19T06:56:24.385Z,100.00
2017-11-19T06:58:52.062Z,100.00
2017-11-19T07:01:19.776Z,100.00
2017-11-19T07:03:47.415Z,100.00
2017-11-19T07:06:15.158Z,100.00
2017-11-19T07:08:42.757Z,100.00
2017-11-19T07:11:10.411Z,100.00
2017-11-19T07:13:38.116Z,100.00
2017-11-19T07:16:05.765Z,100.00
2017-11-19T07:18:33.454Z,100.00
2017-11-19T07:21:01.116Z,100.00
2017-11-19T07:23:28.813Z,100.00
2017-11-19T07:25:56.409Z,100.00
2017-11-19T07:28:24.121Z,100.00
2017-11-19T07:30:51.800Z,100.00
2017-11-19T07:33:19.566Z,100.00
2017-11-19T07:35:47.223Z,100.00
2017-11-19T07:38:14.945Z,100.00
2017-11-19T07:40:42.628Z,100.00
2017-11-19T07:43:10.336Z,100.00
2017-11-19T07:45:37.989Z,100.00
2017-11-19T07:48:05.690Z,99.91
2017-11-19T07:50:33.403Z,99.71
2017-11-19T07:53:01.087Z,99.57
2017-11-19T07:55:28.742Z,99.52
2017-11-19T07:57:56.380Z,99.39
2017-11-19T08:00:24.031Z,99.49
2017-11-19T08:02:51.718Z,99.53
2017-11-19T08:05:19.363Z,99.60
2017-11-19T08:07:47.017Z,99.83
2017-11-19T08:10:14.705Z,99.89
2017-11-19T08:12:42.341Z,99.91
2017-11-19T08:15:10.037Z,100.00
2017-11-19T08:17:37.707Z,100.00
2017-11-19T08:20:05.412Z,100.00
2017-11-19T08:22:33.066Z,100.00
2017-11-19T08:25:00.739Z,100.00
2017-11-19T08:27:28.387Z,100.00
2017-11-19T08:29:56.110Z,100.00
2017-11-19T08:32:23.755Z,100.00
2017-11-19T08:34:51.442Z,100.00
2017-11-19T08:37:19.101Z,100.00
2017-11-19T08:39:46.776Z,100.00
2017-11-19T08:42:14.449Z,100.00
2017-11-19T08:44:42.136Z,100.00
2017-11-19T08:47:09.806Z,100.00
2017-11-19T08:49:37.496Z,100.00
2017-11-19T08:52:05.305Z,100.00
2017-11-19T08:54:32.993Z,100.00
2017-11-19T08:57:00.651Z,100.00
2017-11-19T08:59:28.356Z,100.00
2017-11-19T09:01:56.026Z,100.00
2017-11-19T09:04:23.703Z,100.00
2017-11-19T09:06:51.394Z,100.00
2017-11-19T09:09:19.920Z,100.00
2017-11-19T09:11:47.605Z,100.00
2017-11-19T09:14:15.256Z,100.00
2017-11-19T09:16:42.956Z,100.00
2017-11-19T09:19:10.601Z,100.00
2017-11-19T09:21:38.296Z,100.00
2017-11-19T09:24:05.954Z,99.88
2017-11-19T09:26:33.699Z,99.72
2017-11-19T09:29:01.352Z,99.25
2017-11-19T09:31:29.051Z,98.98
2017-11-19T09:33:56.707Z,98.72
2017-11-19T09:36:24.409Z,98.17
2017-11-19T09:38:52.051Z,98.16
2017-11-19T09:41:19.756Z,98.12
2017-11-19T09:43:47.397Z,98.05
2017-11-19T09:46:15.072Z,98.25
2017-11-19T09:48:42.727Z,98.15
2017-11-19T09:51:10.440Z,97.95
2017-11-19T09:53:38.084Z,97.65
2017-11-19T09:56:05.782Z,97.63
2017-11-19T09:58:33.467Z,97.23
2017-11-19T10:01:01.116Z,96.58
2017-11-19T10:03:28.801Z,96.60
2017-11-19T10:05:56.469Z,97.12
2017-11-19T10:08:24.178Z,97.67
2017-11-19T10:10:51.853Z,98.24
2017-11-19T10:13:19.543Z,98.08
2017-11-19T10:15:47.186Z,97.73
2017-11-19T10:18:14.877Z,97.90
2017-11-19T10:20:42.528Z,97.35
2017-11-19T10:23:10.217Z,97.37
2017-11-19T10:25:37.864Z,97.48
2017-11-19T10:28:05.579Z,97.27
2017-11-19T10:30:33.246Z,95.76
2017-11-19T10:33:00.929Z,96.33
2017-11-19T10:35:28.599Z,96.57
2017-11-19T10:37:56.281Z,97.00
2017-11-19T10:40:23.925Z,96.21
2017-11-19T10:42:51.608Z,96.58
2017-11-19T10:45:19.281Z,96.04
2017-11-19T10:47:46.968Z,95.53
2017-11-19T10:50:14.646Z,95.63
2017-11-19T10:52:42.379Z,95.72
2017-11-19T10:55:10.021Z,95.71
2017-11-19T10:57:37.729Z,95.59
2017-11-19T11:00:05.391Z,95.98
2017-11-19T11:02:33.039Z,95.31
2017-11-19T11:05:00.728Z,95.48
2017-11-19T11:07:28.393Z,94.17
2017-11-19T11:09:56.802Z,93.66
2017-11-19T11:12:24.446Z,93.76
2017-11-19T11:14:52.125Z,94.06
2017-11-19T11:17:19.756Z,93.74
2017-11-19T11:19:47.456Z,94.22
2017-11-19T11:22:15.121Z,94.51
2017-11-19T11:24:42.823Z,94.34
2017-11-19T11:27:10.467Z,93.88
2017-11-19T11:29:38.201Z,93.26
2017-11-19T11:32:05.847Z,92.16
2017-11-19T11:34:33.540Z,92.09
2017-11-19T11:37:01.191Z,91.22
2017-11-19T11:39:28.885Z,91.41
2017-11-19T11:41:56.526Z,89.98
2017-11-19T11:44:24.218Z,91.62
2017-11-19T11:46:51.871Z,91.68
2017-11-19T11:49:19.563Z,92.15
2017-11-19T11:51:47.357Z,92.15
2017-11-19T11:54:15.021Z,91.92
2017-11-19T11:56:42.700Z,91.40
2017-11-19T11:59:10.381Z,91.78
2017-11-19T12:01:38.076Z,92.11
2017-11-19T12:04:05.767Z,91.64
2017-11-19T12:06:33.420Z,91.48
2017-11-19T12:09:01.070Z,90.52
2017-11-19T12:11:28.780Z,90.84
2017-11-19T12:13:56.435Z,90.00
2017-11-19T12:16:24.126Z,88.28
2017-11-19T12:18:51.791Z,82.66
2017-11-19T12:21:19.488Z,82.81
2017-11-19T12:23:47.155Z,80.41
2017-11-19T12:26:14.848Z,80.59
2017-11-19T12:28:42.488Z,80.60
2017-11-19T12:31:10.197Z,80.84
2017-11-19T12:33:37.848Z,79.94
2017-11-19T12:36:05.533Z,79.31
2017-11-19T12:38:33.181Z,79.98
2017-11-19T12:41:00.884Z,80.91
2017-11-19T12:43:28.532Z,79.31
2017-11-19T12:45:56.236Z,79.31
2017-11-19T12:48:23.822Z,79.52
2017-11-19T12:50:51.549Z,78.46
2017-11-19T12:53:19.141Z,79.15
2017-11-19T12:55:46.805Z,79.92
2017-11-19T12:58:14.498Z,79.39
2017-11-19T13:00:42.190Z,79.61
2017-11-19T13:03:09.881Z,83.00
2017-11-19T13:05:37.528Z,86.75
2017-11-19T13:08:05.216Z,88.04
2017-11-19T13:10:33.977Z,88.52
2017-11-19T13:13:01.691Z,89.75
2017-11-19T13:15:29.354Z,88.79
2017-11-19T13:18:00.333Z,89.32
2017-11-19T13:20:28.024Z,90.38
2017-11-19T13:22:55.703Z,90.79
2017-11-19T13:25:23.361Z,89.98
2017-11-19T13:27:51.059Z,91.21
2017-11-19T13:30:18.726Z,92.40
2017-11-19T13:32:46.432Z,91.09
2017-11-19T13:35:14.086Z,91.84
2017-11-19T13:37:41.773Z,92.05
2017-11-19T13:40:09.440Z,92.29
2017-11-19T13:42:37.143Z,92.83
2017-11-19T13:45:04.810Z,93.54
2017-11-19T13:47:32.488Z,93.90
2017-11-19T13:50:00.146Z,93.74
2017-11-19T13:52:27.878Z,92.91
2017-11-19T13:54:55.521Z,91.62
2017-11-19T13:57:23.224Z,91.15
2017-11-19T13:59:50.887Z,90.88
2017-11-19T14:02:18.537Z,91.04
2017-11-19T14:04:46.212Z,89.77
2017-11-19T14:07:13.859Z,88.71
2017-11-19T14:09:41.568Z,86.71
2017-11-19T14:12:09.224Z,88.06
2017-11-19T14:14:36.917Z,86.83
2017-11-19T14:17:04.564Z,86.79
2017-11-19T14:19:32.246Z,87.22
2017-11-19T14:21:59.919Z,87.27
2017-11-19T14:24:27.614Z,86.33
2017-11-19T14:26:55.265Z,85.79
2017-11-19T14:29:22.955Z,85.76
2017-11-19T14:31:50.689Z,84.66
2017-11-19T14:34:18.399Z,85.90
2017-11-19T14:36:46.059Z,85.94
2017-11-19T14:39:13.751Z,85.38
2017-11-19T14:41:41.409Z,85.96
2017-11-19T14:44:09.105Z,86.04
2017-11-19T14:46:36.771Z,86.09
2017-11-19T14:49:04.483Z,86.09
2017-11-19T14:51:32.175Z,84.71
2017-11-19T14:53:59.867Z,85.66
2017-11-19T14:56:27.535Z,85.66
2017-11-19T14:58:55.206Z,85.84
2017-11-19T15:01:22.914Z,84.67
2017-11-19T15:03:50.573Z,84.91
2017-11-19T15:06:18.269Z,85.32
2017-11-19T15:08:45.849Z,85.48
2017-11-19T15:11:13.551Z,85.27
2017-11-19T15:13:41.219Z,85.38
2017-11-19T15:16:08.910Z,85.73
2017-11-19T15:18:36.564Z,84.97
2017-11-19T15:21:04.243Z,84.97
2017-11-19T15:23:31.886Z,85.39
2017-11-19T15:25:59.580Z,84.97
2017-11-19T15:28:27.229Z,84.56
2017-11-19T15:30:54.912Z,85.49
2017-11-19T15:33:22.563Z,85.78
2017-11-19T15:35:50.269Z,86.21
2017-11-19T15:38:17.914Z,86.62
2017-11-19T15:40:45.620Z,86.33
2017-11-19T15:43:13.299Z,86.80
2017-11-19T15:45:41.002Z,87.16
2017-11-19T15:48:08.648Z,87.82
2017-11-19T15:50:36.335Z,87.64
2017-11-19T15:53:04.026Z,88.30
2017-11-19T15:55:31.692Z,87.91
2017-11-19T15:58:00.276Z,87.68
2017-11-19T16:00:27.922Z,87.80
2017-11-19T16:02:55.600Z,87.86
2017-11-19T16:05:23.272Z,88.26
2017-11-19T16:07:50.965Z,88.40
2017-11-19T16:10:18.602Z,88.72
2017-11-19T16:12:46.286Z,88.87
2017-11-19T16:15:13.935Z,88.86
2017-11-19T16:17:41.612Z,88.92
2017-11-19T16:20:09.281Z,89.12
2017-11-19T16:22:36.977Z,89.18
2017-11-19T16:25:04.621Z,89.47
2017-11-19T16:27:32.314Z,89.73
2017-11-19T16:29:59.977Z,90.04
2017-11-19T16:32:27.725Z,90.29
2017-11-19T16:34:55.470Z,90.59
2017-11-19T16:37:23.179Z,90.48
2017-11-19T16:39:50.867Z,90.48
2017-11-19T16:42:18.538Z,90.61
2017-11-19T16:44:46.212Z,90.59
2017-11-19T16:47:13.955Z,90.76
2017-11-19T16:49:41.625Z,90.69
2017-11-19T16:52:09.340Z,90.95
2017-11-19T16:54:37.035Z,90.62
2017-11-19T16:57:04.714Z,90.80
2017-11-19T16:59:32.397Z,91.10
2017-11-19T17:02:00.091Z,90.94
2017-11-19T17:04:27.770Z,90.71
2017-11-19T17:06:55.426Z,90.80
2017-11-19T17:09:23.119Z,90.70
2017-11-19T17:11:51.452Z,90.71
2017-11-19T17:14:19.156Z,90.77
2017-11-19T17:16:46.824Z,90.84
2017-11-19T17:19:14.540Z,90.66
2017-11-19T17:21:42.206Z,90.53
2017-11-19T17:24:09.891Z,90.38
2017-11-19T17:26:37.541Z,90.36
2017-11-19T17:29:05.253Z,90.47
2017-11-19T17:31:32.925Z,90.34
2017-11-19T17:34:00.643Z,90.46
2017-11-19T17:36:34.320Z,90.06
2017-11-19T17:39:02.009Z,89.87
2017-11-19T17:41:29.657Z,89.98
2017-11-19T17:43:57.356Z,89.99
2017-11-19T17:46:25.092Z,90.17
2017-11-19T17:48:52.795Z,90.49
2017-11-19T17:51:20.492Z,90.59
2017-11-19T17:53:48.214Z,90.72
2017-11-19T17:56:15.859Z,90.72
2017-11-19T17:58:43.547Z,90.87
2017-11-19T18:01:11.206Z,90.84
2017-11-19T18:03:38.872Z,90.58
2017-11-19T18:06:06.596Z,90.24
2017-11-19T18:08:34.265Z,89.77
2017-11-19T18:11:02.175Z,89.72
2017-11-19T18:13:29.846Z,89.46
2017-11-19T18:15:57.524Z,89.32
2017-11-19T18:18:25.177Z,89.00
2017-11-19T18:20:52.864Z,88.60
2017-11-19T18:23:20.513Z,88.09
2017-11-19T18:25:48.229Z,88.02
2017-11-19T18:28:15.924Z,88.25
2017-11-19T18:30:43.630Z,88.18
2017-11-19T18:33:11.286Z,87.92
2017-11-19T18:35:38.977Z,87.16
2017-11-19T18:38:06.647Z,87.16
2017-11-19T18:40:34.330Z,86.91
2017-11-19T18:43:01.979Z,86.95
2017-11-19T18:45:29.669Z,86.98
2017-11-19T18:47:57.530Z,86.90
2017-11-19T18:50:25.200Z,86.81
2017-11-19T18:52:52.922Z,86.22
2017-11-19T18:55:21.491Z,86.45
2017-11-19T18:57:49.162Z,85.82
2017-11-19T19:00:16.794Z,85.58
2017-11-19T19:02:44.480Z,85.27
2017-11-19T19:05:12.119Z,85.11
2017-11-19T19:07:39.826Z,84.56
2017-11-19T19:10:07.489Z,84.44
2017-11-19T19:12:35.183Z,84.95
2017-11-19T19:15:03.013Z,85.38
2017-11-19T19:17:30.692Z,86.40
2017-11-19T19:19:58.345Z,86.82
2017-11-19T19:22:26.034Z,87.50
2017-11-19T19:24:53.686Z,88.61
2017-11-19T19:27:21.383Z,88.83
2017-11-19T19:29:49.040Z,88.96
2017-11-19T19:32:16.743Z,89.26
2017-11-19T19:34:44.417Z,89.29
2017-11-19T19:37:12.087Z,89.46
2017-11-19T19:39:39.737Z,89.82
2017-11-19T19:42:07.391Z,89.81
2017-11-19T19:44:35.083Z,89.65
2017-11-19T19:47:02.759Z,88.91
2017-11-19T19:49:30.454Z,88.76
2017-11-19T19:51:58.131Z,88.45
2017-11-19T19:54:25.814Z,87.95
2017-11-19T19:56:53.464Z,87.61
2017-11-19T19:59:21.157Z,87.82
2017-11-19T20:01:48.825Z,87.62
2017-11-19T20:04:16.519Z,87.70
2017-11-19T20:06:44.170Z,87.85
2017-11-19T20:09:11.855Z,87.94
2017-11-19T20:11:39.532Z,87.69
2017-11-19T20:14:07.215Z,87.64
2017-11-19T20:16:34.868Z,87.86
2017-11-19T20:19:02.554Z,87.70
2017-11-19T20:21:30.213Z,87.73
2017-11-19T20:23:57.877Z,87.05
2017-11-19T20:26:25.521Z,86.69
2017-11-19T20:28:53.199Z,86.82
2017-11-19T20:31:20.844Z,87.47
2017-11-19T20:33:48.519Z,87.64
2017-11-19T20:36:16.192Z,87.43
2017-11-19T20:38:43.877Z,87.65
2017-11-19T20:41:11.489Z,87.73
2017-11-19T20:43:39.133Z,87.97
2017-11-19T20:46:06.762Z,88.51
2017-11-19T20:48:34.432Z,88.77
2017-11-19T20:51:02.164Z,89.15
2017-11-19T20:53:29.815Z,89.47
2017-11-19T20:55:57.512Z,89.73
2017-11-19T20:58:25.181Z,89.62
2017-11-19T21:00:52.860Z,89.48
2017-11-19T21:03:20.517Z,89.39
2017-11-19T21:05:48.226Z,89.24
2017-11-19T21:08:15.894Z,88.89
2017-11-19T21:10:43.591Z,88.66
2017-11-19T21:13:11.243Z,88.72
2017-11-19T21:15:38.861Z,88.71
2017-11-19T21:18:06.512Z,88.71
2017-11-19T21:20:34.173Z,88.64
2017-11-19T21:23:01.857Z,88.53
2017-11-19T21:25:29.500Z,88.55
2017-11-19T21:27:57.204Z,88.66
2017-11-19T21:30:24.857Z,88.65
2017-11-19T21:32:52.527Z,88.73
2017-11-19T21:35:20.107Z,88.59
2017-11-19T21:37:47.792Z,88.50
2017-11-19T21:40:15.438Z,88.67
2017-11-19T21:42:43.121Z,88.79
2017-11-19T21:45:10.778Z,88.89
2017-11-19T21:47:38.401Z,88.98
2017-11-19T21:50:06.054Z,89.27
2017-11-19T21:52:33.677Z,89.37
2017-11-19T21:55:01.352Z,89.34
2017-11-19T21:57:29.060Z,89.29
2017-11-19T21:59:56.724Z,89.37
2017-11-19T22:02:24.384Z,89.69
2017-11-19T22:04:52.066Z,89.97
2017-11-19T22:07:19.734Z,90.17
2017-11-19T22:09:47.438Z,90.35
2017-11-19T22:12:15.079Z,90.53
2017-11-19T22:14:42.763Z,90.64
2017-11-19T22:17:10.431Z,90.68
2017-11-19T22:19:38.118Z,90.86
2017-11-19T22:22:05.762Z,90.86
2017-11-19T22:24:33.448Z,90.90
2017-11-19T22:27:01.096Z,90.92
2017-11-19T22:29:28.799Z,90.98
2017-11-19T22:31:56.443Z,90.97
2017-11-19T22:34:24.122Z,90.97
2017-11-19T22:36:51.755Z,90.93
2017-11-19T22:39:19.847Z,90.94
2017-11-19T22:41:47.495Z,91.00
2017-11-19T22:44:15.180Z,90.93
2017-11-19T22:46:42.838Z,90.90
2017-11-19T22:49:10.521Z,91.04
2017-11-19T22:51:38.216Z,91.07
2017-11-19T22:54:05.856Z,90.94
2017-11-19T22:56:33.539Z,90.87
2017-11-19T22:59:01.252Z,90.67
2017-11-19T23:01:28.936Z,90.66
2017-11-19T23:03:56.580Z,90.57
2017-11-19T23:06:24.264Z,90.51
2017-11-19T23:08:51.894Z,90.49
2017-11-19T23:11:19.566Z,90.48
2017-11-19T23:13:47.222Z,90.59
2017-11-19T23:16:14.909Z,90.77
2017-11-19T23:18:42.563Z,90.79
2017-11-19T23:21:10.238Z,90.92
2017-11-19T23:23:37.902Z,91.10
2017-11-19T23:26:05.585Z,91.14
2017-11-19T23:28:33.240Z,91.25
2017-11-19T23:31:00.911Z,91.45
2017-11-19T23:33:28.551Z,91.57
2017-11-19T23:35:56.229Z,91.61
2017-11-19T23:38:23.889Z,91.55
2017-11-19T23:40:51.568Z,91.51
2017-11-19T23:43:19.156Z,91.50
2017-11-19T23:45:46.853Z,91.57
2017-11-19T23:48:14.549Z,91.69
2017-11-19T23:50:42.201Z,91.85
2017-11-19T23:53:09.911Z,92.07
2017-11-19T23:55:37.557Z,92.25
2017-11-19T23:58:05.246Z,92.33
